Time;durP1;ratioP1;P1;durP2;ratioP2;P2;SDS_P1;SDS_P2;PMS_P1;PMS_P2;Temp;Humidity;BMP_temperature;BMP_pressure;BME280_temperature;BME280_humidity;BME280_pressure;Samples;Min_cycle;Max_cycle;Signal;HPM_P1;HPM_P2
2022/06/05 00:00:11;;;;;;;7.25;3.62;;;;;;;18.31;80.44;99174.28;1781736;80;20879;-72
2022/06/05 00:03:04;;;;;;;6.60;3.55;;;;;;;18.32;80.61;99173.76;1788314;80;20899;-72
2022/06/05 00:05:43;;;;;;;5.45;3.80;;;;;;;18.33;80.59;99181.59;1779293;80;21563;-73
2022/06/05 00:08:24;;;;;;;3.77;3.47;;;;;;;18.32;80.70;99177.28;1763795;80;21045;-71
2022/06/05 00:10:56;;;;;;;4.35;3.67;;;;;;;18.29;80.83;99170.17;1765318;80;20887;-72
2022/06/05 00:13:44;;;;;;;5.28;3.67;;;;;;;18.27;80.92;99167.72;1759762;80;20891;-72
2022/06/05 00:16:17;;;;;;;3.87;3.50;;;;;;;18.24;80.99;99177.59;1783418;80;20927;-73
2022/06/05 00:18:45;;;;;;;5.62;3.15;;;;;;;18.25;81.09;99180.56;1776755;79;21258;-73
2022/06/05 00:21:11;;;;;;;3.92;3.60;;;;;;;18.26;81.20;99171.97;1772656;81;20951;-73
2022/06/05 00:23:38;;;;;;;4.30;3.90;;;;;;;18.26;81.14;99178.17;1773235;79;20915;-72
2022/06/05 00:26:39;;;;;;;4.33;4.00;;;;;;;18.24;81.16;99166.82;1773351;81;21073;-71
2022/06/05 00:29:43;;;;;;;4.35;4.05;;;;;;;18.24;81.16;99170.86;1754553;81;21108;-73
2022/06/05 00:32:35;;;;;;;4.28;4.00;;;;;;;18.18;81.30;99169.06;1755007;81;21190;-72
2022/06/05 00:35:02;;;;;;;4.50;4.20;;;;;;;18.16;81.57;99169.82;1766434;81;20923;-71
2022/06/05 00:37:47;;;;;;;6.65;4.28;;;;;;;18.16;81.76;99178.41;1773284;79;20916;-72
2022/06/05 00:40:34;;;;;;;5.28;4.80;;;;;;;18.16;81.92;99185.14;1764578;81;20888;-72
2022/06/05 00:43:06;;;;;;;5.58;5.17;;;;;;;18.19;82.02;99176.63;1753651;81;21113;-72
2022/06/05 00:45:35;;;;;;;5.50;5.20;;;;;;;18.20;82.03;99184.45;1773183;81;21186;-73
2022/06/05 00:48:04;;;;;;;5.50;5.10;;;;;;;18.20;82.11;99183.11;1773140;81;20928;-72
2022/06/05 00:50:31;;;;;;;5.55;5.15;;;;;;;18.19;82.12;99180.14;1750271;81;21580;-71
2022/06/05 00:53:00;;;;;;;6.00;5.55;;;;;;;18.21;82.20;99183.42;1772878;79;21468;-72
2022/06/05 00:55:34;;;;;;;5.58;5.12;;;;;;;18.24;82.23;99187.53;1752080;81;20904;-73
2022/06/05 00:58:01;;;;;;;5.42;5.00;;;;;;;18.25;82.19;99187.84;1767147;80;21203;-72
2022/06/05 01:00:34;;;;;;;5.47;5.17;;;;;;;18.23;82.22;99193.95;1750975;81;21461;-72
2022/06/05 01:03:06;;;;;;;4.85;4.55;;;;;;;18.21;82.36;99194.19;1767558;81;20971;-73
2022/06/05 01:05:32;;;;;;;5.78;5.37;;;;;;;18.21;82.41;99196.88;1773368;79;21082;-72
2022/06/05 01:07:59;;;;;;;5.37;4.97;;;;;;;18.19;82.54;99200.33;1769177;81;21563;-73
2022/06/05 01:11:05;;;;;;;4.95;4.65;;;;;;;18.21;82.66;99196.88;1766228;81;21604;-72
2022/06/05 01:14:13;;;;;;;5.10;4.80;;;;;;;18.23;82.66;99195.30;1750537;80;20924;-73
2022/06/05 01:17:08;;;;;;;4.67;4.37;;;;;;;18.21;82.71;99200.92;1773542;81;20931;-71
2022/06/05 01:20:14;;;;;;;5.17;4.87;;;;;;;18.21;82.78;99198.75;1785151;79;20966;-71
2022/06/05 01:22:58;;;;;;;5.75;5.40;;;;;;;18.20;82.76;99199.78;1768588;80;20938;-73
2022/06/05 01:25:36;;;;;;;5.65;5.35;;;;;;;18.20;82.66;99207.34;1788988;79;21085;-73
2022/06/05 01:28:08;;;;;;;5.37;4.97;;;;;;;18.18;82.70;99208.09;1781156;79;20978;-72
2022/06/05 01:30:40;;;;;;;4.90;4.60;;;;;;;18.14;82.74;99208.27;1774720;80;20962;-73
2022/06/05 01:33:12;;;;;;;5.85;5.12;;;;;;;18.11;82.84;99206.02;1759859;80;20959;-72
2022/06/05 01:35:52;;;;;;;5.60;5.20;;;;;;;18.09;82.94;99202.73;1789727;79;21389;-72
2022/06/05 01:38:36;;;;;;;5.40;5.00;;;;;;;18.10;82.95;99206.22;1789738;80;21065;-73
2022/06/05 01:41:23;;;;;;;5.05;4.75;;;;;;;18.09;83.07;99206.77;1776925;80;20974;-73
2022/06/05 01:43:52;;;;;;;5.40;5.00;;;;;;;18.09;83.17;99205.95;1759692;80;20962;-72
2022/06/05 01:46:33;;;;;;;5.33;4.92;;;;;;;18.06;83.30;99207.22;1759612;80;20898;-72
2022/06/05 01:49:18;;;;;;;5.78;5.28;;;;;;;18.06;83.46;99206.39;1759842;80;20995;-72
2022/06/05 01:51:59;;;;;;;5.35;4.87;;;;;;;18.03;83.69;99204.97;1768562;80;21232;-73
2022/06/05 01:54:32;;;;;;;5.58;4.90;;;;;;;18.02;83.84;99202.48;1779298;80;21406;-73
2022/06/05 01:56:59;;;;;;;5.28;4.87;;;;;;;18.00;83.91;99198.69;1789671;79;20978;-72
2022/06/05 01:59:53;;;;;;;4.70;4.30;;;;;;;18.00;83.97;99204.06;1789721;80;20852;-72
2022/06/05 02:02:25;;;;;;;4.95;4.55;;;;;;;17.97;83.97;99213.10;1772413;79;21010;-73
2022/06/05 02:04:59;;;;;;;5.10;4.70;;;;;;;17.93;84.11;99207.88;1759787;80;21140;-73
2022/06/05 02:07:34;;;;;;;4.80;4.50;;;;;;;17.91;84.30;99211.33;1759187;80;20932;-72
2022/06/05 02:10:08;;;;;;;4.55;4.03;;;;;;;17.89;84.34;99206.98;1789171;80;21009;-72
2022/06/05 02:12:35;;;;;;;4.33;4.03;;;;;;;17.90;84.39;99209.16;1744411;80;21527;-72
2022/06/05 02:15:02;;;;;;;4.85;4.45;;;;;;;17.87;84.27;99208.25;1710043;82;21024;-71
2022/06/05 02:17:30;;;;;;;4.70;4.22;;;;;;;17.86;84.19;99220.88;1710028;82;21176;-72
2022/06/05 02:20:00;;;;;;;4.65;4.25;;;;;;;17.86;84.23;99214.14;1705995;83;20888;-71
2022/06/05 02:22:32;;;;;;;5.22;4.45;;;;;;;17.85;84.30;99217.08;1718215;82;20999;-72
2022/06/05 02:24:59;;;;;;;5.12;4.58;;;;;;;17.85;84.30;99214.38;1688129;82;21038;-73
2022/06/05 02:27:26;;;;;;;5.58;4.45;;;;;;;17.86;84.29;99214.66;1733429;82;20980;-73
2022/06/05 02:29:53;;;;;;;8.55;5.62;;;;;;;17.84;84.20;99209.52;1733255;82;21351;-72
2022/06/05 02:32:53;;;;;;;6.00;4.78;;;;;;;17.83;84.17;99222.66;1711728;82;21023;-73
2022/06/05 02:35:34;;;;;;;5.42;4.92;;;;;;;17.78;84.26;99223.86;1712862;82;21026;-72
2022/06/05 02:38:37;;;;;;;4.35;3.98;;;;;;;17.76;84.50;99227.30;1724873;82;20979;-73
2022/06/05 02:41:19;;;;;;;4.58;4.17;;;;;;;17.80;84.71;99226.34;1730388;82;21054;-71
2022/06/05 02:47:22;;;;;;;4.15;3.85;;;;;;;17.77;84.76;99219.53;1617188;87;20908;-73
2022/06/05 02:50:10;;;;;;;6.30;4.10;;;;;;;17.71;84.90;99223.11;1621512;88;21069;-73
2022/06/05 02:52:37;;;;;;;4.12;3.83;;;;;;;17.64;84.89;99218.33;1728601;79;21476;-73
2022/06/05 02:55:13;;;;;;;4.03;3.72;;;;;;;17.61;85.00;99221.97;1743836;81;21481;-73
2022/06/05 02:57:42;;;;;;;3.98;3.75;;;;;;;17.62;84.97;99223.63;1753550;81;21145;-72
2022/06/05 03:00:15;;;;;;;3.92;3.62;;;;;;;17.60;84.92;99223.83;1751456;81;21002;-72
2022/06/05 03:05:28;;;;;;;3.98;3.62;;;;;;;17.55;84.83;99221.50;1743629;81;21981;-72
2022/06/05 03:07:56;;;;;;;3.70;3.33;;;;;;;17.53;84.88;99224.94;1743731;81;20980;-72
2022/06/05 03:10:23;;;;;;;3.92;3.62;;;;;;;17.54;85.06;99221.22;1749386;81;21152;-72
2022/06/05 03:12:50;;;;;;;4.40;3.55;;;;;;;17.54;85.01;99223.91;1749168;81;21018;-72
2022/06/05 03:15:16;;;;;;;4.17;3.20;;;;;;;17.52;85.00;99225.42;1743778;81;20959;-72
2022/06/05 03:17:45;;;;;;;4.55;3.25;;;;;;;17.49;85.04;99221.85;1740077;81;21520;-73
2022/06/05 03:20:14;;;;;;;3.20;2.90;;;;;;;17.49;85.20;99228.58;1754997;80;21595;-73
2022/06/05 03:22:41;;;;;;;2.60;2.50;;;;;;;17.51;85.11;99233.20;1763302;80;21263;-72
2022/06/05 03:25:09;;;;;;;3.10;2.90;;;;;;;17.50;85.02;99232.06;1759678;80;21527;-73
2022/06/05 03:27:37;;;;;;;2.75;2.55;;;;;;;17.49;84.90;99238.50;1760888;80;21508;-73
2022/06/05 03:30:05;;;;;;;2.60;2.50;;;;;;;17.48;84.75;99243.57;1765721;80;21093;-73
2022/06/05 03:32:32;;;;;;;3.02;2.83;;;;;;;17.48;84.68;99242.22;1774164;80;21052;-73
2022/06/05 03:34:58;;;;;;;2.20;2.10;;;;;;;17.48;84.60;99246.26;1759786;80;21893;-74
2022/06/05 03:37:25;;;;;;;2.95;2.60;;;;;;;17.48;84.62;99248.43;1759802;80;20876;-73
2022/06/05 03:39:52;;;;;;;2.30;2.20;;;;;;;17.49;84.58;99241.20;1760129;80;20974;-74
2022/06/05 03:42:19;;;;;;;3.22;3.02;;;;;;;17.52;84.52;99241.55;1769809;80;20914;-73
2022/06/05 03:44:46;;;;;;;3.05;2.37;;;;;;;17.52;84.42;99236.72;1783244;80;20935;-73
2022/06/05 03:47:13;;;;;;;2.58;2.47;;;;;;;17.52;84.42;99242.90;1789634;79;21109;-73
2022/06/05 03:49:41;;;;;;;2.70;2.60;;;;;;;17.54;84.30;99240.04;1789588;79;20962;-73
2022/06/05 03:52:09;;;;;;;2.83;2.67;;;;;;;17.54;84.23;99239.52;1783422;79;20922;-72
2022/06/05 03:54:36;;;;;;;2.70;2.50;;;;;;;17.57;84.26;99239.61;1759658;80;21116;-74
2022/06/05 03:57:03;;;;;;;2.80;2.70;;;;;;;17.60;84.12;99239.13;1759926;80;21536;-73
2022/06/05 03:59:33;;;;;;;3.00;2.80;;;;;;;17.59;84.00;99233.47;1759959;80;21266;-74
2022/06/05 04:01:59;;;;;;;3.00;2.80;;;;;;;17.56;84.01;99244.16;1766662;80;20966;-74
2022/06/05 04:04:25;;;;;;;2.87;2.67;;;;;;;17.58;84.06;99238.02;1771822;80;21436;-73
2022/06/05 04:06:52;;;;;;;3.22;3.02;;;;;;;17.57;83.94;99243.09;1759844;80;20962;-73
2022/06/05 04:09:19;;;;;;;3.17;2.95;;;;;;;17.55;83.84;99243.84;1760672;80;20955;-72
2022/06/05 04:11:45;;;;;;;3.37;2.80;;;;;;;17.57;83.85;99235.57;1769333;80;21143;-72
2022/06/05 04:14:12;;;;;;;6.97;3.33;;;;;;;17.59;83.81;99225.41;1766849;80;20971;-72
2022/06/05 04:16:41;;;;;;;5.30;3.33;;;;;;;17.62;83.86;99224.97;1759864;80;20981;-74
2022/06/05 04:19:07;;;;;;;6.65;3.42;;;;;;;17.67;83.92;99221.92;1759673;80;20904;-73
2022/06/05 04:21:36;;;;;;;5.05;3.10;;;;;;;17.72;83.90;99223.94;1771341;80;21022;-72
2022/06/05 04:24:03;;;;;;;2.50;2.40;;;;;;;17.75;83.74;99218.91;1789726;80;20949;-73
2022/06/05 04:26:33;;;;;;;3.30;3.00;;;;;;;17.83;83.55;99221.86;1788205;78;20934;-74
2022/06/05 04:28:59;;;;;;;2.92;2.60;;;;;;;17.91;83.35;99222.89;1767166;80;20990;-72
2022/06/05 04:31:31;;;;;;;2.37;2.27;;;;;;;18.01;83.04;99220.53;1778954;80;21452;-73
2022/06/05 04:34:00;;;;;;;2.65;2.47;;;;;;;18.09;82.66;99218.06;1759810;80;21444;-72
2022/06/05 04:36:27;;;;;;;2.87;2.60;;;;;;;18.12;82.28;99219.75;1761794;80;21179;-73
2022/06/05 04:38:55;;;;;;;3.27;3.08;;;;;;;18.16;82.05;99218.27;1766683;80;20918;-75
2022/06/05 04:41:24;;;;;;;2.90;2.70;;;;;;;18.19;81.84;99217.83;1765514;80;21457;-71
2022/06/05 04:43:51;;;;;;;2.77;2.67;;;;;;;18.17;81.56;99219.90;1766117;80;21025;-74
2022/06/05 04:46:19;;;;;;;2.92;2.70;;;;;;;18.18;81.40;99213.48;1759874;80;21052;-74
2022/06/05 04:48:46;;;;;;;2.75;2.55;;;;;;;18.18;81.17;99221.56;1766146;80;21127;-74
2022/06/05 04:51:12;;;;;;;2.87;2.77;;;;;;;18.15;80.95;99216.62;1759592;80;21540;-73
2022/06/05 04:53:39;;;;;;;2.92;2.72;;;;;;;18.16;80.90;99218.80;1772596;80;21011;-71
2022/06/05 04:56:08;;;;;;;3.52;3.33;;;;;;;18.14;80.76;99214.17;1764768;80;20938;-73
2022/06/05 04:58:35;;;;;;;3.60;3.35;;;;;;;18.09;80.64;99222.09;1764857;80;20926;-71
2022/06/05 05:01:11;;;;;;;3.52;3.27;;;;;;;18.08;80.81;99232.03;1768885;80;21752;-74
2022/06/05 05:03:38;;;;;;;2.98;2.77;;;;;;;18.14;80.74;99236.53;1771332;80;20934;-73
2022/06/05 05:06:05;;;;;;;3.72;3.37;;;;;;;18.18;80.64;99232.33;1767577;80;20891;-73
2022/06/05 05:08:32;;;;;;;3.40;3.10;;;;;;;18.23;80.24;99241.06;1772630;80;21498;-71
2022/06/05 05:10:59;;;;;;;3.35;3.12;;;;;;;18.28;80.03;99243.39;1766357;80;20981;-72
2022/06/05 05:13:26;;;;;;;3.40;3.10;;;;;;;18.36;79.93;99244.43;1770630;80;21146;-73
2022/06/05 05:15:53;;;;;;;3.58;3.27;;;;;;;18.45;79.68;99254.38;1759665;80;20979;-74
2022/06/05 05:18:21;;;;;;;3.47;3.20;;;;;;;18.51;79.40;99250.80;1759746;80;20958;-72
2022/06/05 05:20:47;;;;;;;3.08;2.87;;;;;;;18.57;79.20;99253.11;1748760;80;20999;-73
2022/06/05 05:23:15;;;;;;;2.98;2.77;;;;;;;18.66;78.87;99255.80;1750598;81;20864;-73
2022/06/05 05:25:41;;;;;;;3.02;2.83;;;;;;;18.73;78.32;99265.44;1747278;81;21906;-72
2022/06/05 05:28:08;;;;;;;2.70;2.60;;;;;;;18.79;77.95;99263.71;1745374;81;20880;-73
2022/06/05 05:30:37;;;;;;;3.10;2.90;;;;;;;18.80;77.59;99270.73;1769971;79;20916;-73
2022/06/05 05:33:05;;;;;;;3.40;3.20;;;;;;;18.77;77.23;99260.43;1747953;80;20930;-72
2022/06/05 05:35:32;;;;;;;3.12;2.92;;;;;;;18.82;77.13;99251.13;1747518;81;21006;-73
2022/06/05 05:37:59;;;;;;;3.27;2.90;;;;;;;18.98;76.84;99258.58;1750574;81;21131;-73
2022/06/05 05:43:10;;;;;;;3.35;2.35;;;;;;;19.49;75.32;99269.63;1760744;81;20986;-74
2022/06/05 05:45:37;;;;;;;2.90;2.70;;;;;;;19.83;74.24;99268.53;1763460;81;21081;-75
2022/06/05 05:48:04;;;;;;;2.95;2.75;;;;;;;20.35;73.45;99274.33;1743801;81;20978;-73
2022/06/05 05:50:32;;;;;;;2.92;2.62;;;;;;;21.01;71.73;99276.99;1743833;81;21219;-74
2022/06/05 05:53:00;;;;;;;3.05;2.85;;;;;;;21.59;69.64;99276.69;1749726;81;21226;-72
2022/06/05 05:55:27;;;;;;;2.90;2.70;;;;;;;21.95;67.27;99275.64;1768242;81;20982;-71
2022/06/05 05:57:54;;;;;;;3.52;3.20;;;;;;;22.47;66.17;99276.64;1773217;79;20959;-73
2022/06/05 06:00:21;;;;;;;2.87;2.10;;;;;;;23.23;64.11;99279.70;1769344;81;20962;-71
2022/06/05 06:02:47;;;;;;;6.17;2.60;;;;;;;24.77;60.80;99269.90;1750770;81;21152;-73
2022/06/05 06:05:16;;;;;;;5.45;2.42;;;;;;;26.43;56.00;99264.50;1748838;81;20936;-72
2022/06/05 06:07:45;;;;;;;3.65;2.27;;;;;;;27.51;50.99;99267.19;1747501;81;21041;-72
2022/06/05 06:10:12;;;;;;;4.20;2.55;;;;;;;27.93;48.28;99268.73;1743733;81;20971;-71
2022/06/05 06:12:39;;;;;;;2.22;2.12;;;;;;;27.58;47.80;99266.88;1748661;79;20958;-71
2022/06/05 06:15:08;;;;;;;3.85;2.60;;;;;;;27.27;47.42;99273.89;1749745;79;21407;-71
2022/06/05 06:17:36;;;;;;;3.45;2.50;;;;;;;27.25;47.45;99278.83;1767945;81;20978;-72
2022/06/05 06:20:05;;;;;;;4.45;2.65;;;;;;;27.75;46.83;99269.45;1777093;79;20919;-72
2022/06/05 06:22:32;;;;;;;2.90;2.70;;;;;;;28.04;46.12;99259.36;1787737;80;21007;-72
2022/06/05 06:24:59;;;;;;;3.15;2.70;;;;;;;27.90;45.08;99251.53;1770549;80;21033;-72
2022/06/05 06:27:27;;;;;;;2.83;2.62;;;;;;;27.52;45.29;99257.36;1759862;80;21895;-72
2022/06/05 06:29:55;;;;;;;2.65;2.55;;;;;;;27.02;45.78;99258.23;1760671;80;21057;-71
2022/06/05 06:32:22;;;;;;;2.60;2.42;;;;;;;26.44;46.49;99256.57;1767925;80;21685;-72
2022/06/05 06:34:48;;;;;;;2.52;2.33;;;;;;;26.05;47.25;99263.74;1772177;78;20965;-72
2022/06/05 06:37:16;;;;;;;2.27;2.10;;;;;;;25.87;47.79;99268.41;1765332;80;21469;-71
2022/06/05 06:39:43;;;;;;;2.80;2.20;;;;;;;26.66;47.27;99263.86;1759648;80;21887;-66
2022/06/05 06:42:09;;;;;;;2.42;2.33;;;;;;;27.82;45.50;99255.47;1759715;80;20840;-63
2022/06/05 06:44:36;;;;;;;3.45;2.45;;;;;;;28.19;43.73;99262.48;1771527;80;20870;-64
2022/06/05 06:47:03;;;;;;;3.47;2.45;;;;;;;28.08;43.82;99261.77;1760747;80;20946;-65
2022/06/05 06:49:33;;;;;;;5.80;2.60;;;;;;;27.72;44.56;99255.53;1765427;80;20969;-63
2022/06/05 06:51:59;;;;;;;3.27;2.47;;;;;;;27.34;44.88;99259.93;1759621;80;21262;-65
2022/06/05 06:54:26;;;;;;;12.78;2.40;;;;;;;26.94;45.38;99262.37;1768989;80;20876;-62
2022/06/05 06:56:54;;;;;;;2.75;2.55;;;;;;;26.44;46.38;99266.69;1782200;80;20997;-64
2022/06/05 06:59:23;;;;;;;3.37;3.08;;;;;;;25.87;47.40;99276.58;1789703;79;20903;-64
2022/06/05 07:01:50;;;;;;;3.15;2.95;;;;;;;25.49;48.46;99279.34;1789533;80;21426;-66
2022/06/05 07:04:19;;;;;;;3.75;2.85;;;;;;;25.05;49.36;99271.64;1785835;79;20844;-67
2022/06/05 07:06:48;;;;;;;3.33;3.02;;;;;;;24.66;50.43;99275.84;1779742;80;21008;-70
2022/06/05 07:09:15;;;;;;;3.00;2.80;;;;;;;25.09;50.69;99275.98;1759761;80;20907;-63
2022/06/05 07:11:42;;;;;;;2.58;2.40;;;;;;;26.48;48.24;99275.39;1763123;79;21014;-69
2022/06/05 07:14:09;;;;;;;2.58;2.47;;;;;;;26.86;47.22;99282.06;1760645;80;20919;-65
2022/06/05 07:16:37;;;;;;;2.27;2.17;;;;;;;27.46;46.01;99276.80;1774286;80;21220;-66
2022/06/05 07:19:04;;;;;;;2.72;2.52;;;;;;;28.51;43.58;99268.13;1767699;79;20874;-68
2022/06/05 07:21:31;;;;;;;2.27;2.10;;;;;;;30.00;40.60;99265.12;1750265;80;20939;-68
2022/06/05 07:24:00;;;;;;;7.95;2.67;;;;;;;31.21;38.59;99265.41;1773183;81;21531;-67
2022/06/05 07:26:30;;;;;;;4.70;2.17;;;;;;;31.94;36.66;99263.63;1772796;81;20907;-69
2022/06/05 07:28:56;;;;;;;4.87;2.70;;;;;;;32.30;35.66;99260.97;1750832;81;21817;-65
2022/06/05 07:31:29;;;;;;;4.20;2.47;;;;;;;32.92;34.08;99256.73;1754341;81;21445;-62
2022/06/05 07:33:54;;;;;;;3.55;2.00;;;;;;;33.14;33.29;99259.36;1763442;80;20983;-70
2022/06/05 07:36:21;;;;;;;4.00;2.15;;;;;;;34.15;31.65;99258.20;1743771;81;20974;-71
2022/06/05 07:38:48;;;;;;;4.20;2.30;;;;;;;34.99;30.87;99262.81;1750945;81;20852;-72
2022/06/05 07:41:26;;;;;;;2.37;1.80;;;;;;;36.25;29.81;99255.41;1748415;81;21987;-73
2022/06/05 07:43:53;;;;;;;4.75;1.65;;;;;;;37.59;27.13;99252.71;1750612;81;21477;-66
2022/06/05 07:46:20;;;;;;;3.33;2.00;;;;;;;37.61;26.36;99258.70;1761038;79;21023;-73
2022/06/05 07:48:47;;;;;;;4.22;2.10;;;;;;;36.39;26.76;99255.31;1747978;81;20943;-67
2022/06/05 07:54:34;;;;;;;3.15;1.90;;;;;;;33.85;30.10;99259.24;1743876;81;21113;-66
2022/06/05 07:57:09;;;;;;;2.25;2.00;;;;;;;32.69;31.44;99268.44;1753165;81;21019;-64
2022/06/05 07:59:41;;;;;;;3.58;2.37;;;;;;;31.59;33.28;99273.58;1743828;81;20919;-67
2022/06/05 08:02:18;;;;;;;2.70;2.12;;;;;;;31.08;34.50;99280.23;1748641;79;21445;-64
2022/06/05 08:04:46;;;;;;;2.85;2.15;;;;;;;30.72;34.45;99283.48;1743686;81;20899;-63
2022/06/05 08:07:16;;;;;;;2.33;2.22;;;;;;;29.73;36.25;99282.29;1743840;81;21113;-66
2022/06/05 08:09:44;;;;;;;2.45;2.30;;;;;;;29.03;37.18;99283.63;1747632;80;20888;-63
2022/06/05 08:12:13;;;;;;;2.83;2.10;;;;;;;28.58;38.36;99293.21;1743512;81;20935;-64
2022/06/05 08:14:41;;;;;;;5.17;1.82;;;;;;;28.15;39.17;99288.23;1742997;81;21050;-65
2022/06/05 08:17:11;;;;;;;4.75;2.52;;;;;;;27.87;40.09;99283.54;1763195;81;21421;-64
2022/06/05 08:19:39;;;;;;;2.95;2.20;;;;;;;27.49;40.76;99289.34;1751016;79;21205;-64
2022/06/05 08:22:07;;;;;;;2.47;2.27;;;;;;;27.12;41.63;99293.11;1763688;81;21434;-65
2022/06/05 08:24:34;;;;;;;8.03;3.20;;;;;;;26.64;42.53;99299.34;1746914;79;20975;-66
2022/06/05 08:27:02;;;;;;;4.58;2.75;;;;;;;26.10;43.83;99296.44;1756099;81;21607;-65
2022/06/05 08:29:29;;;;;;;2.72;2.52;;;;;;;25.59;44.78;99306.03;1764045;81;20880;-66
2022/06/05 08:31:55;;;;;;;2.83;2.52;;;;;;;25.12;45.86;99303.48;1743529;81;21033;-64
2022/06/05 08:34:22;;;;;;;3.83;2.72;;;;;;;24.75;46.98;99304.15;1772702;80;20966;-65
2022/06/05 08:41:26;;;;;;;3.90;2.75;;;;;;;24.55;47.95;99306.79;1772162;81;20944;-66
2022/06/05 08:42:26;;;;;;;6.40;2.47;;;;;;;25.50;48.05;99302.20;1754350;79;21002;-65
2022/06/05 08:45:11;;;;;;;5.50;2.00;;;;;;;26.85;44.85;99295.46;1745311;81;21220;-65
2022/06/05 08:47:48;;;;;;;2.72;2.50;;;;;;;26.89;44.03;99302.80;1763581;81;20872;-66
2022/06/05 08:50:28;;;;;;;2.33;2.12;;;;;;;27.06;43.92;99302.98;1773133;81;20919;-65
2022/06/05 08:52:59;;;;;;;2.30;2.10;;;;;;;29.02;41.06;99296.26;1772070;79;20951;-64
2022/06/05 08:55:43;;;;;;;2.40;2.20;;;;;;;31.50;36.86;99291.38;1743923;81;21441;-64
2022/06/05 08:58:37;;;;;;;2.92;2.20;;;;;;;33.64;33.38;99283.13;1744848;81;21207;-65
2022/06/05 09:01:12;;;;;;;5.67;1.85;;;;;;;35.61;29.84;99284.98;1768315;81;21517;-65
2022/06/05 09:03:46;;;;;;;2.73;1.97;;;;;;;36.89;27.71;99274.34;1773360;80;20931;-69
2022/06/05 09:06:26;;;;;;;2.22;1.67;;;;;;;36.10;27.45;99281.81;1772136;81;21231;-66
2022/06/05 09:08:56;;;;;;;2.37;1.87;;;;;;;34.25;29.21;99294.30;1753934;81;20959;-69
2022/06/05 09:11:40;;;;;;;3.92;2.02;;;;;;;32.67;31.60;99295.47;1749823;79;21764;-70
2022/06/05 09:14:19;;;;;;;2.22;2.10;;;;;;;32.34;32.71;99290.88;1759849;79;21655;-64
2022/06/05 09:16:50;;;;;;;2.85;2.10;;;;;;;31.90;33.09;99295.62;1760981;80;20977;-64
2022/06/05 09:19:23;;;;;;;2.30;2.20;;;;;;;30.72;34.55;99304.62;1748800;79;20856;-65
2022/06/05 09:22:16;;;;;;;2.60;2.40;;;;;;;29.44;36.78;99304.95;1753402;80;20910;-64
2022/06/05 09:25:22;;;;;;;2.50;2.25;;;;;;;28.42;38.84;99308.75;1779935;80;21146;-64
2022/06/05 09:28:06;;;;;;;2.98;2.47;;;;;;;27.64;40.56;99306.73;1768410;79;20914;-64
2022/06/05 09:30:47;;;;;;;2.40;2.17;;;;;;;27.08;41.98;99311.70;1767560;80;21441;-63
2022/06/05 09:33:29;;;;;;;2.77;2.40;;;;;;;26.65;42.73;99316.78;1757211;80;20923;-61
2022/06/05 09:36:02;;;;;;;3.37;2.60;;;;;;;26.20;43.78;99316.92;1757433;80;21465;-59
2022/06/05 09:38:42;;;;;;;3.95;2.98;;;;;;;25.88;44.75;99314.48;1776888;80;21245;-71
2022/06/05 09:41:23;;;;;;;2.55;2.10;;;;;;;26.02;44.95;99317.47;1765666;80;20914;-69
2022/06/05 09:44:22;;;;;;;3.10;2.40;;;;;;;27.24;43.48;99307.80;1771993;79;21136;-71
2022/06/05 09:46:59;;;;;;;2.50;2.30;;;;;;;28.18;41.19;99310.64;1766171;80;21060;-68
2022/06/05 09:49:38;;;;;;;4.40;2.33;;;;;;;28.25;40.78;99311.10;1756813;80;20926;-65
2022/06/05 09:52:19;;;;;;;5.58;2.27;;;;;;;28.19;40.97;99310.33;1757354;80;21131;-66
2022/06/05 09:55:07;;;;;;;2.62;2.25;;;;;;;28.24;41.16;99314.92;1757606;80;21477;-65
2022/06/05 10:01:00;;;;;;;3.50;2.50;;;;;;;27.70;40.97;99315.95;1779386;80;20896;-67
2022/06/05 10:03:38;;;;;;;2.90;2.52;;;;;;;27.49;41.40;99314.47;1777007;80;21085;-68
2022/06/05 10:06:19;;;;;;;2.45;2.12;;;;;;;27.29;41.43;99314.05;1764984;80;21244;-71
2022/06/05 10:09:13;;;;;;;4.72;2.17;;;;;;;27.14;41.74;99309.22;1766785;80;20906;-69
2022/06/05 10:12:03;;;;;;;3.55;2.67;;;;;;;27.04;41.77;99313.38;1756809;80;21564;-70
2022/06/05 10:14:50;;;;;;;3.83;2.65;;;;;;;27.10;42.21;99320.42;1757247;80;20891;-69
2022/06/05 10:17:22;;;;;;;2.98;2.20;;;;;;;26.98;41.96;99313.38;1780070;80;20843;-71
2022/06/05 10:20:06;;;;;;;3.27;1.98;;;;;;;26.92;41.89;99317.80;1781031;80;21114;-71
2022/06/05 10:23:17;;;;;;;2.70;2.50;;;;;;;26.85;41.75;99321.38;1761609;80;20946;-71
2022/06/05 10:25:59;;;;;;;2.27;2.02;;;;;;;26.91;42.00;99322.43;1784783;79;20943;-72
2022/06/05 10:28:30;;;;;;;3.35;2.08;;;;;;;26.85;41.97;99316.72;1761401;79;20998;-70
2022/06/05 10:31:04;;;;;;;2.95;2.05;;;;;;;26.67;42.58;99321.98;1767487;80;20969;-70
2022/06/05 10:33:38;;;;;;;2.35;1.82;;;;;;;26.75;42.94;99320.83;1776424;80;21896;-70
2022/06/05 10:36:19;;;;;;;3.55;2.00;;;;;;;26.87;42.21;99313.73;1781600;78;20923;-71
2022/06/05 10:39:08;;;;;;;2.62;2.08;;;;;;;26.93;41.94;99319.44;1770661;80;21599;-73
2022/06/05 10:41:53;;;;;;;2.02;1.90;;;;;;;27.12;42.01;99330.51;1768626;80;21002;-70
2022/06/05 10:44:27;;;;;;;1.95;1.80;;;;;;;27.18;41.58;99323.93;1782633;78;21397;-72
2022/06/05 10:47:11;;;;;;;2.12;1.80;;;;;;;27.08;41.34;99326.72;1789586;80;21823;-70
2022/06/05 10:49:49;;;;;;;2.60;2.10;;;;;;;26.82;41.74;99332.31;1789647;80;20860;-71
2022/06/05 10:52:30;;;;;;;2.08;1.92;;;;;;;26.55;42.65;99333.73;1783484;78;21022;-75
2022/06/05 10:55:23;;;;;;;2.40;2.17;;;;;;;26.33;43.31;99333.50;1761698;80;20947;-69
2022/06/05 10:57:56;;;;;;;3.42;2.20;;;;;;;26.23;43.78;99337.62;1762001;80;21448;-71
2022/06/05 11:00:28;;;;;;;3.17;2.30;;;;;;;26.09;44.21;99339.27;1766048;79;21249;-69
2022/06/05 11:03:28;;;;;;;3.15;2.30;;;;;;;26.06;44.75;99332.17;1765400;80;20982;-71
2022/06/05 11:06:25;;;;;;;2.27;2.10;;;;;;;26.17;44.13;99329.73;1783403;80;20957;-68
2022/06/05 11:09:25;;;;;;;2.40;2.20;;;;;;;26.25;43.73;99331.34;1766329;80;21081;-69
2022/06/05 11:15:39;;;;;;;3.62;2.12;;;;;;;26.38;43.05;99333.49;1759205;80;21969;-69
2022/06/05 11:18:30;;;;;;;1.98;1.87;;;;;;;26.44;43.45;99324.75;1777578;80;20956;-69
2022/06/05 11:20:59;;;;;;;2.55;2.10;;;;;;;26.55;43.77;99322.27;1758659;80;21502;-69
2022/06/05 11:23:28;;;;;;;2.50;2.30;;;;;;;26.59;43.14;99318.45;1750701;80;21536;-68
2022/06/05 11:26:24;;;;;;;2.77;2.35;;;;;;;26.53;43.49;99329.10;1748719;81;20907;-69
2022/06/05 11:29:14;;;;;;;2.25;2.10;;;;;;;26.47;43.43;99324.75;1728281;80;21161;-70
2022/06/05 11:32:12;;;;;;;2.72;2.52;;;;;;;26.35;43.85;99325.89;1751371;80;20985;-68
2022/06/05 11:35:17;;;;;;;2.40;2.30;;;;;;;26.26;44.46;99328.89;1700162;83;21037;-69
2022/06/05 11:38:06;;;;;;;3.02;2.17;;;;;;;26.18;44.77;99324.00;1757607;80;21038;-70
2022/06/05 11:40:53;;;;;;;2.50;2.30;;;;;;;26.03;44.73;99323.17;1760661;80;21052;-71
2022/06/05 11:43:33;;;;;;;2.37;2.27;;;;;;;25.84;45.30;99316.09;1751219;80;22140;-71
2022/06/05 11:46:24;;;;;;;3.00;2.80;;;;;;;25.84;45.51;99312.01;1766043;80;21466;-69
2022/06/05 11:49:05;;;;;;;4.67;2.10;;;;;;;26.01;45.21;99309.01;1776448;79;21029;-69
2022/06/05 11:51:42;;;;;;;2.70;2.60;;;;;;;26.22;44.21;99309.28;1766361;80;21623;-69
2022/06/05 11:54:22;;;;;;;1.98;1.85;;;;;;;26.36;43.44;99304.86;1762855;79;21031;-70
2022/06/05 11:57:09;;;;;;;3.35;2.00;;;;;;;26.39;42.53;99315.23;1757790;79;21130;-70
2022/06/05 11:59:53;;;;;;;3.40;2.50;;;;;;;26.28;41.91;99310.34;1778552;80;20895;-72
2022/06/05 12:02:44;;;;;;;2.10;2.00;;;;;;;26.21;41.81;99309.00;1751222;80;20986;-72
2022/06/05 12:05:16;;;;;;;2.08;1.98;;;;;;;26.06;42.51;99313.09;1751392;80;21874;-70
2022/06/05 12:07:44;;;;;;;3.10;2.40;;;;;;;26.00;43.25;99312.27;1753380;80;21011;-75
2022/06/05 12:10:24;;;;;;;2.87;2.47;;;;;;;26.00;43.73;99310.09;1761448;80;21090;-72
2022/06/05 12:13:17;;;;;;;2.72;2.45;;;;;;;26.03;46.14;99318.55;1770998;80;20884;-75
2022/06/05 12:16:05;;;;;;;3.08;2.45;;;;;;;25.73;47.38;99313.91;1741301;80;20969;-72
2022/06/05 12:18:45;;;;;;;3.05;2.70;;;;;;;25.29;48.93;99315.48;1777310;80;20986;-71
2022/06/05 12:21:26;;;;;;;2.75;2.42;;;;;;;24.88;50.32;99317.28;1759190;80;21488;-71
2022/06/05 12:23:58;;;;;;;3.00;2.80;;;;;;;24.56;50.83;99320.11;1745514;80;21156;-70
2022/06/05 12:26:33;;;;;;;2.95;2.75;;;;;;;24.32;51.74;99329.79;1751129;80;21610;-71
2022/06/05 12:29:11;;;;;;;5.58;3.30;;;;;;;24.08;52.56;99327.17;1751841;80;21007;-72